createdAt,value
2018-11-13T00:02:01.104Z,98005.00
2018-11-13T00:04:32.152Z,98005.00
2018-11-13T00:07:02.305Z,97988.00
2018-11-13T00:09:49.228Z,97992.00
2018-11-13T00:12:19.616Z,97996.00
2018-11-13T00:14:49.749Z,98003.00
2018-11-13T00:17:19.835Z,97991.00
2018-11-13T00:19:50.171Z,98000.00
2018-11-13T00:22:20.234Z,97986.00
2018-11-13T00:24:50.346Z,98002.00
2018-11-13T00:27:20.500Z,98005.00
2018-11-13T00:29:50.817Z,97996.00
2018-11-13T00:32:20.898Z,97990.00
2018-11-13T00:34:51.088Z,98003.00
2018-11-13T00:37:21.320Z,98004.00
2018-11-13T00:39:51.705Z,97993.00
2018-11-13T00:42:21.785Z,97999.00
2018-11-13T00:44:51.922Z,97996.00
2018-11-13T00:47:22.025Z,98013.00
2018-11-13T00:49:52.193Z,97992.00
2018-11-13T00:52:22.337Z,97998.00
2018-11-13T00:54:53.021Z,97996.00
2018-11-13T00:57:23.125Z,97990.00
2018-11-13T00:59:54.629Z,98011.00
2018-11-13T01:02:24.785Z,98007.00
2018-11-13T01:04:54.933Z,97997.00
2018-11-13T01:07:25.748Z,98003.00
2018-11-13T01:09:56.661Z,98011.00
2018-11-13T01:12:26.781Z,98002.00
2018-11-13T01:14:56.995Z,98002.00
2018-11-13T01:17:27.438Z,97996.00
2018-11-13T01:19:57.560Z,98006.00
2018-11-13T01:22:27.728Z,98009.00
2018-11-13T01:24:57.772Z,98017.00
2018-11-13T01:27:27.824Z,98021.00
2018-11-13T01:29:58.848Z,97999.00
2018-11-13T01:32:29.909Z,97998.00
2018-11-13T01:35:00.177Z,98001.00
2018-11-13T01:37:30.314Z,97996.00
2018-11-13T01:40:00.425Z,98006.00
2018-11-13T01:42:31.509Z,97999.00
2018-11-13T01:45:01.665Z,97995.00
2018-11-13T01:47:31.819Z,97988.00
2018-11-13T01:50:01.968Z,97984.00
2018-11-13T01:52:32.132Z,97991.00
2018-11-13T01:55:02.330Z,97993.00
2018-11-13T01:57:32.498Z,98001.00
2018-11-13T02:00:03.844Z,97982.00
2018-11-13T02:02:35.958Z,97991.00
2018-11-13T02:05:06.648Z,98004.00
2018-11-13T02:07:36.852Z,97991.00
2018-11-13T02:10:07.386Z,97994.00
2018-11-13T02:12:37.520Z,97990.00
2018-11-13T02:15:08.470Z,97995.00
2018-11-13T02:17:38.598Z,97995.00
2018-11-13T02:20:14.413Z,98003.00
2018-11-13T02:22:44.722Z,98024.00
2018-11-13T02:25:16.362Z,97995.00
2018-11-13T02:27:46.814Z,98000.00
2018-11-13T02:30:19.262Z,98003.00
2018-11-13T02:32:49.752Z,97987.00
2018-11-13T02:35:21.059Z,97996.00
2018-11-13T02:37:52.001Z,97989.00
2018-11-13T02:40:22.110Z,97984.00
2018-11-13T02:42:52.205Z,97990.00
2018-11-13T02:45:22.448Z,98012.00
2018-11-13T02:47:52.574Z,97991.00
2018-11-13T02:50:22.742Z,98005.00
2018-11-13T02:52:52.832Z,98024.00
2018-11-13T02:55:22.936Z,98026.00
2018-11-13T02:57:53.015Z,98023.00
2018-11-13T03:00:23.278Z,98033.00
2018-11-13T03:02:53.720Z,98017.00
2018-11-13T03:05:23.800Z,98018.00
2018-11-13T03:07:53.957Z,98015.00
2018-11-13T03:10:24.069Z,98016.00
2018-11-13T03:12:54.192Z,98025.00
2018-11-13T03:15:24.278Z,98018.00
2018-11-13T03:17:54.363Z,98015.00
2018-11-13T03:20:26.104Z,98011.00
2018-11-13T03:22:56.187Z,98015.00
2018-11-13T03:25:26.320Z,98021.00
2018-11-13T03:27:56.476Z,98014.00
2018-11-13T03:30:26.615Z,98017.00
2018-11-13T03:32:56.706Z,98018.00
2018-11-13T03:35:26.863Z,98024.00
2018-11-13T03:37:56.956Z,98040.00
2018-11-13T03:40:27.080Z,98041.00
2018-11-13T03:42:57.146Z,98050.00
2018-11-13T03:45:27.269Z,98033.00
2018-11-13T03:47:57.417Z,98025.00
2018-11-13T03:50:27.623Z,98050.00
2018-11-13T03:53:00.461Z,98038.00
2018-11-13T03:55:30.615Z,98057.00
2018-11-13T03:58:00.695Z,98053.00
2018-11-13T04:00:30.865Z,98055.00
2018-11-13T04:03:01.093Z,98056.00
2018-11-13T04:05:31.245Z,98060.00
2018-11-13T04:08:01.320Z,98078.00
2018-11-13T04:10:32.391Z,98065.00
2018-11-13T04:13:02.503Z,98062.00
2018-11-13T04:15:32.697Z,98059.00
2018-11-13T04:18:02.930Z,98056.00
2018-11-13T04:20:33.047Z,98054.00
2018-11-13T04:23:03.935Z,98076.00
2018-11-13T04:25:34.981Z,98069.00
2018-11-13T04:28:06.120Z,98080.00
2018-11-13T04:30:36.214Z,98082.00
2018-11-13T04:33:06.443Z,98079.00
2018-11-13T04:35:36.511Z,98078.00
2018-11-13T04:38:06.943Z,98075.00
2018-11-13T04:40:37.021Z,98080.00
2018-11-13T04:43:07.155Z,98082.00
2018-11-13T04:45:37.229Z,98095.00
2018-11-13T04:48:07.307Z,98101.00
2018-11-13T04:50:37.405Z,98095.00
2018-11-13T04:53:07.479Z,98082.00
2018-11-13T04:55:37.562Z,98094.00
2018-11-13T04:58:08.151Z,98094.00
2018-11-13T05:00:38.740Z,98095.00
2018-11-13T05:03:08.964Z,98084.00
2018-11-13T05:05:39.071Z,98077.00
2018-11-13T05:08:09.180Z,98108.00
2018-11-13T05:10:39.352Z,98114.00
2018-11-13T05:13:09.478Z,98117.00
2018-11-13T05:15:39.532Z,98132.00
2018-11-13T05:18:09.644Z,98121.00
2018-11-13T05:20:39.797Z,98126.00
2018-11-13T05:23:09.970Z,98122.00
2018-11-13T05:25:40.060Z,98116.00
2018-11-13T05:28:10.233Z,98127.00
2018-11-13T05:30:40.345Z,98125.00
2018-11-13T05:33:10.461Z,98142.00
2018-11-13T05:35:40.534Z,98130.00
2018-11-13T05:38:10.641Z,98136.00
2018-11-13T05:40:40.731Z,98148.00
2018-11-13T05:43:10.840Z,98144.00
2018-11-13T05:45:40.961Z,98145.00
2018-11-13T05:48:11.123Z,98152.00
2018-11-13T05:50:41.189Z,98151.00
2018-11-13T05:53:11.514Z,98165.00
2018-11-13T05:55:41.659Z,98167.00
2018-11-13T05:58:11.763Z,98179.00
2018-11-13T06:00:41.902Z,98169.00
2018-11-13T06:03:12.101Z,98177.00
2018-11-13T06:05:42.879Z,98184.00
2018-11-13T06:08:13.014Z,98183.00
2018-11-13T06:10:43.081Z,98173.00
2018-11-13T06:13:13.216Z,98186.00
2018-11-13T06:15:43.387Z,98201.00
2018-11-13T06:18:13.585Z,98202.00
2018-11-13T06:20:47.427Z,98208.00
2018-11-13T06:23:19.871Z,98202.00
2018-11-13T06:25:50.051Z,98198.00
2018-11-13T06:28:30.831Z,98212.00
2018-11-13T06:31:00.997Z,98212.00
2018-11-13T06:33:31.100Z,98211.00
2018-11-13T06:36:01.265Z,98208.00
2018-11-13T06:38:31.455Z,98203.00
2018-11-13T06:41:02.550Z,98203.00
2018-11-13T06:43:32.621Z,98208.00
2018-11-13T06:46:02.802Z,98224.00
2018-11-13T06:48:36.432Z,98230.00
2018-11-13T06:51:06.632Z,98227.00
2018-11-13T06:53:53.610Z,98233.00
2018-11-13T06:56:23.816Z,98241.00
2018-11-13T06:58:53.884Z,98246.00
2018-11-13T07:01:24.114Z,98240.00
2018-11-13T07:03:54.232Z,98257.00
2018-11-13T07:06:25.861Z,98266.00
2018-11-13T07:08:55.904Z,98272.00
2018-11-13T07:11:25.994Z,98254.00
2018-11-13T07:13:56.114Z,98271.00
2018-11-13T07:16:26.230Z,98301.00
2018-11-13T07:18:56.376Z,98292.00
2018-11-13T07:21:26.489Z,98296.00
2018-11-13T07:23:56.564Z,98301.00
2018-11-13T07:26:26.725Z,98298.00
2018-11-13T07:28:56.830Z,98289.00
2018-11-13T07:31:26.965Z,98280.00
2018-11-13T07:33:57.021Z,98289.00
2018-11-13T07:36:27.164Z,98288.00
2018-11-13T07:38:57.616Z,98279.00
2018-11-13T07:41:27.849Z,98300.00
2018-11-13T07:43:57.958Z,98302.00
2018-11-13T07:46:28.087Z,98309.00
2018-11-13T07:48:58.217Z,98321.00
2018-11-13T07:51:28.325Z,98330.00
2018-11-13T07:53:58.933Z,98321.00
2018-11-13T07:56:28.941Z,98324.00
2018-11-13T07:58:59.048Z,98326.00
2018-11-13T08:01:29.144Z,98329.00
2018-11-13T08:03:59.199Z,98343.00
2018-11-13T08:06:29.347Z,98342.00
2018-11-13T08:08:59.458Z,98348.00
2018-11-13T08:11:29.551Z,98353.00
2018-11-13T08:13:59.721Z,98368.00
2018-11-13T08:16:29.933Z,98358.00
2018-11-13T08:19:00.097Z,98353.00
2018-11-13T08:21:30.298Z,98365.00
2018-11-13T08:24:00.412Z,98367.00
2018-11-13T08:26:30.561Z,98353.00
2018-11-13T08:29:03.663Z,98349.00
2018-11-13T08:31:33.660Z,98349.00
2018-11-13T08:34:03.760Z,98365.00
2018-11-13T08:36:33.867Z,98395.00
2018-11-13T08:39:06.474Z,98372.00
2018-11-13T08:41:36.611Z,98377.00
2018-11-13T08:44:07.300Z,98377.00
2018-11-13T08:46:37.384Z,98391.00
2018-11-13T08:49:07.988Z,98388.00
2018-11-13T08:51:38.054Z,98396.00
2018-11-13T08:54:08.222Z,98394.00
2018-11-13T08:56:38.419Z,98395.00
2018-11-13T08:59:08.651Z,98404.00
2018-11-13T09:01:38.693Z,98400.00
2018-11-13T09:04:08.801Z,98409.00
2018-11-13T09:06:39.103Z,98407.00
2018-11-13T09:09:12.275Z,98392.00
2018-11-13T09:11:42.535Z,98407.00
2018-11-13T09:14:12.522Z,98409.00
2018-11-13T09:16:42.619Z,98425.00
2018-11-13T09:19:13.801Z,98424.00
2018-11-13T09:21:43.862Z,98426.00
2018-11-13T09:24:17.010Z,98432.00
2018-11-13T09:26:47.103Z,98448.00
2018-11-13T09:29:17.263Z,98442.00
2018-11-13T09:31:47.454Z,98425.00
2018-11-13T09:34:17.518Z,98438.00
2018-11-13T09:36:47.591Z,98430.00
2018-11-13T09:39:17.725Z,98434.00
2018-11-13T09:41:47.757Z,98441.00
2018-11-13T09:44:18.051Z,98444.00
2018-11-13T09:46:48.121Z,98444.00
2018-11-13T09:49:18.268Z,98476.00
2018-11-13T09:51:48.409Z,98477.00
2018-11-13T09:54:18.740Z,98465.00
2018-11-13T09:56:48.853Z,98460.00
2018-11-13T09:59:19.127Z,98443.00
2018-11-13T10:01:49.661Z,98442.00
2018-11-13T10:04:20.030Z,98436.00
2018-11-13T10:06:49.631Z,98423.00
2018-11-13T10:09:19.796Z,98423.00
2018-11-13T10:11:49.986Z,98430.00
2018-11-13T10:14:20.109Z,98436.00
2018-11-13T10:16:50.194Z,98428.00
2018-11-13T10:19:20.298Z,98435.00
2018-11-13T10:21:50.520Z,98452.00
2018-11-13T10:24:20.698Z,98452.00
2018-11-13T10:26:50.902Z,98449.00
2018-11-13T10:29:21.011Z,98460.00
2018-11-13T10:31:51.193Z,98461.00
2018-11-13T10:34:21.522Z,98448.00
2018-11-13T10:36:51.707Z,98443.00
2018-11-13T10:39:21.786Z,98422.00
2018-11-13T10:41:52.019Z,98436.00
2018-11-13T10:44:22.116Z,98438.00
2018-11-13T10:46:52.225Z,98428.00
2018-11-13T10:49:22.253Z,98429.00
2018-11-13T10:51:52.409Z,98414.00
2018-11-13T10:54:22.553Z,98423.00
2018-11-13T10:56:52.667Z,98430.00
2018-11-13T10:59:22.898Z,98424.00
2018-11-13T11:01:58.194Z,98424.00
2018-11-13T11:04:33.609Z,98434.00
2018-11-13T11:07:03.712Z,98431.00
2018-11-13T11:09:33.851Z,98424.00
2018-11-13T11:12:04.036Z,98428.00
2018-11-13T11:14:34.186Z,98442.00
2018-11-13T11:17:04.278Z,98451.00
2018-11-13T11:19:34.442Z,98436.00
2018-11-13T11:22:04.580Z,98450.00
2018-11-13T11:24:34.721Z,98457.00
2018-11-13T11:27:04.891Z,98451.00
2018-11-13T11:29:35.035Z,98455.00
2018-11-13T11:32:05.992Z,98464.00
2018-11-13T11:34:36.163Z,98470.00
2018-11-13T11:37:06.491Z,98474.00
2018-11-13T11:39:36.600Z,98478.00
2018-11-13T11:42:06.850Z,98477.00
2018-11-13T11:44:37.025Z,98497.00
2018-11-13T11:47:07.240Z,98502.00
2018-11-13T11:49:37.400Z,98494.00
2018-11-13T11:52:07.623Z,98498.00
2018-11-13T11:54:37.781Z,98507.00
2018-11-13T11:57:07.904Z,98492.00
2018-11-13T11:59:38.181Z,98499.00
2018-11-13T12:02:08.515Z,98489.00
2018-11-13T12:04:38.642Z,98479.00
2018-11-13T12:07:08.796Z,98461.00
2018-11-13T12:09:38.984Z,98476.00
2018-11-13T12:12:09.128Z,98489.00
2018-11-13T12:14:39.279Z,98491.00
2018-11-13T12:17:09.434Z,98515.00
2018-11-13T12:19:39.652Z,98512.00
2018-11-13T12:22:09.795Z,98516.00
2018-11-13T12:24:39.925Z,98530.00
2018-11-13T12:27:10.114Z,98540.00
2018-11-13T12:29:40.691Z,98525.00
2018-11-13T12:32:11.002Z,98520.00
2018-11-13T12:34:41.197Z,98516.00
2018-11-13T12:37:11.255Z,98516.00
2018-11-13T12:39:41.465Z,98523.00
2018-11-13T12:42:11.651Z,98531.00
2018-11-13T12:44:41.928Z,98538.00
2018-11-13T12:47:12.272Z,98556.00
2018-11-13T12:49:43.109Z,98552.00
2018-11-13T12:52:15.306Z,98563.00
2018-11-13T12:54:46.733Z,98564.00
2018-11-13T12:57:16.873Z,98571.00
2018-11-13T12:59:46.971Z,98573.00
2018-11-13T13:02:17.151Z,98570.00
2018-11-13T13:04:47.176Z,98549.00
2018-11-13T13:07:17.409Z,98537.00
2018-11-13T13:09:47.454Z,98577.00
2018-11-13T13:12:17.552Z,98571.00
2018-11-13T13:14:47.718Z,98571.00
2018-11-13T13:17:17.937Z,98564.00
2018-11-13T13:19:48.145Z,98597.00
2018-11-13T13:22:18.305Z,98579.00
2018-11-13T13:24:49.451Z,98585.00
2018-11-13T13:27:20.098Z,98583.00
2018-11-13T13:29:50.375Z,98608.00
2018-11-13T13:32:20.557Z,98614.00
2018-11-13T13:34:57.400Z,98606.00
2018-11-13T13:37:27.609Z,98603.00
2018-11-13T13:39:57.733Z,98587.00
2018-11-13T13:42:27.868Z,98607.00
2018-11-13T13:44:57.990Z,98599.00
2018-11-13T13:47:28.078Z,98613.00
2018-11-13T13:49:58.397Z,98601.00
2018-11-13T13:52:28.543Z,98614.00
2018-11-13T13:55:06.414Z,98611.00
2018-11-13T13:57:36.521Z,98614.00
2018-11-13T14:00:08.775Z,98626.00
2018-11-13T14:02:38.881Z,98630.00
2018-11-13T14:05:09.174Z,98626.00
2018-11-13T14:07:39.338Z,98645.00
2018-11-13T14:10:10.011Z,98639.00
2018-11-13T14:12:40.184Z,98641.00
2018-11-13T14:15:12.973Z,98634.00
2018-11-13T14:17:43.147Z,98637.00
2018-11-13T14:20:21.697Z,98655.00
2018-11-13T14:22:51.852Z,98665.00
2018-11-13T14:25:22.370Z,98665.00
2018-11-13T14:27:52.516Z,98662.00
2018-11-13T14:30:24.719Z,98657.00
2018-11-13T14:32:56.153Z,98658.00
2018-11-13T14:35:26.422Z,98648.00
2018-11-13T14:37:56.555Z,98656.00
2018-11-13T14:40:31.601Z,98657.00
2018-11-13T14:43:02.240Z,98657.00
2018-11-13T14:45:32.622Z,98664.00
2018-11-13T14:48:02.976Z,98668.00
2018-11-13T14:50:35.212Z,98681.00
2018-11-13T14:53:05.966Z,98669.00
2018-11-13T14:55:37.463Z,98683.00
2018-11-13T14:58:09.460Z,98679.00
2018-11-13T15:00:39.921Z,98692.00
2018-11-13T15:03:11.631Z,98681.00
2018-11-13T15:05:41.861Z,98702.00
2018-11-13T15:08:12.471Z,98699.00
2018-11-13T15:10:50.126Z,98713.00
2018-11-13T15:13:21.269Z,98693.00
2018-11-13T15:15:51.420Z,98706.00
2018-11-13T15:18:21.568Z,98692.00
2018-11-13T15:20:52.588Z,98714.00
2018-11-13T15:23:22.740Z,98697.00
2018-11-13T15:25:52.927Z,98710.00
2018-11-13T15:28:23.024Z,98718.00
2018-11-13T15:30:53.203Z,98719.00
2018-11-13T15:33:24.928Z,98731.00
2018-11-13T15:35:55.116Z,98732.00
2018-11-13T15:38:25.266Z,98740.00
2018-11-13T15:40:55.443Z,98745.00
2018-11-13T15:43:25.583Z,98736.00
2018-11-13T15:45:56.372Z,98742.00
2018-11-13T15:48:27.153Z,98761.00
2018-11-13T15:50:57.263Z,98751.00
2018-11-13T15:53:27.387Z,98760.00
2018-11-13T15:55:57.500Z,98756.00
2018-11-13T15:58:27.705Z,98761.00
2018-11-13T16:00:57.908Z,98757.00
2018-11-13T16:03:34.283Z,98757.00
2018-11-13T16:06:04.883Z,98766.00
2018-11-13T16:08:35.080Z,98755.00
2018-11-13T16:11:05.474Z,98752.00
2018-11-13T16:13:35.696Z,98763.00
2018-11-13T16:16:06.418Z,98770.00
2018-11-13T16:18:36.654Z,98768.00
2018-11-13T16:21:07.230Z,98778.00
2018-11-13T16:23:37.810Z,98764.00
2018-11-13T16:26:08.019Z,98769.00
2018-11-13T16:28:38.143Z,98777.00
2018-11-13T16:31:08.340Z,98786.00
2018-11-13T16:33:38.427Z,98788.00
2018-11-13T16:36:08.569Z,98784.00
2018-11-13T16:38:38.710Z,98800.00
2018-11-13T16:41:08.764Z,98787.00
2018-11-13T16:43:39.823Z,98785.00
2018-11-13T16:46:09.999Z,98794.00
2018-11-13T16:48:40.080Z,98793.00
2018-11-13T16:51:10.177Z,98800.00
2018-11-13T16:53:45.501Z,98786.00
2018-11-13T16:56:15.621Z,98801.00
2018-11-13T16:58:45.750Z,98802.00
2018-11-13T17:01:16.086Z,98807.00
2018-11-13T17:03:46.362Z,98795.00
2018-11-13T17:06:16.375Z,98803.00
2018-11-13T17:08:46.491Z,98803.00
2018-11-13T17:11:16.680Z,98807.00
2018-11-13T17:13:46.739Z,98806.00
2018-11-13T17:16:16.963Z,98798.00
2018-11-13T17:18:47.129Z,98805.00
2018-11-13T17:21:18.103Z,98814.00
2018-11-13T17:23:48.279Z,98817.00
2018-11-13T17:26:18.431Z,98816.00
2018-11-13T17:28:48.552Z,98815.00
2018-11-13T17:31:18.674Z,98821.00
2018-11-13T17:33:48.810Z,98821.00
2018-11-13T17:36:18.948Z,98828.00
2018-11-13T17:38:49.128Z,98838.00
2018-11-13T17:41:19.296Z,98835.00
2018-11-13T17:43:49.702Z,98844.00
2018-11-13T17:46:19.827Z,98845.00
2018-11-13T17:48:49.963Z,98837.00
2018-11-13T17:51:20.237Z,98853.00
2018-11-13T17:53:50.391Z,98834.00
2018-11-13T17:56:20.561Z,98852.00
2018-11-13T17:58:50.775Z,98853.00
2018-11-13T18:01:21.118Z,98849.00
2018-11-13T18:03:51.536Z,98852.00
2018-11-13T18:06:21.813Z,98857.00
2018-11-13T18:08:51.953Z,98864.00
2018-11-13T18:11:22.205Z,98874.00
2018-11-13T18:13:53.583Z,98861.00
2018-11-13T18:16:23.726Z,98870.00
2018-11-13T18:18:53.879Z,98857.00
2018-11-13T18:21:24.093Z,98861.00
2018-11-13T18:23:54.301Z,98857.00
2018-11-13T18:26:24.477Z,98861.00
2018-11-13T18:28:54.640Z,98854.00
2018-11-13T18:31:25.573Z,98836.00
2018-11-13T18:33:55.761Z,98848.00
2018-11-13T18:36:26.738Z,98853.00
2018-11-13T18:38:57.066Z,98854.00
2018-11-13T18:41:27.182Z,98864.00
2018-11-13T18:43:57.459Z,98852.00
2018-11-13T18:46:27.576Z,98870.00
2018-11-13T18:49:04.332Z,98864.00
2018-11-13T18:51:35.435Z,98862.00
2018-11-13T18:54:05.760Z,98869.00
2018-11-13T18:56:35.897Z,98874.00
2018-11-13T18:59:06.590Z,98857.00
2018-11-13T19:01:36.607Z,98873.00
2018-11-13T19:04:07.114Z,98865.00
2018-11-13T19:06:37.281Z,98863.00
2018-11-13T19:09:10.999Z,98870.00
2018-11-13T19:11:41.243Z,98876.00
2018-11-13T19:14:11.286Z,98874.00
2018-11-13T19:16:41.675Z,98872.00
2018-11-13T19:19:11.810Z,98877.00
2018-11-13T19:21:41.987Z,98885.00
2018-11-13T19:24:13.240Z,98886.00
2018-11-13T19:26:43.431Z,98883.00
2018-11-13T19:29:13.641Z,98883.00
2018-11-13T19:31:43.866Z,98888.00
2018-11-13T19:34:14.058Z,98900.00
2018-11-13T19:36:44.376Z,98896.00
2018-11-13T19:39:14.541Z,98904.00
2018-11-13T19:41:44.886Z,98885.00
2018-11-13T19:44:15.042Z,98896.00
2018-11-13T19:46:45.228Z,98901.00
2018-11-13T19:49:15.444Z,98907.00
2018-11-13T19:51:45.668Z,98918.00
2018-11-13T19:54:15.999Z,98906.00
2018-11-13T19:56:46.181Z,98899.00
2018-11-13T19:59:16.328Z,98906.00
2018-11-13T20:01:46.735Z,98922.00
2018-11-13T20:04:17.073Z,98914.00
2018-11-13T20:06:47.285Z,98922.00
2018-11-13T20:09:18.209Z,98920.00
2018-11-13T20:11:48.430Z,98929.00
2018-11-13T20:14:20.406Z,98920.00
2018-11-13T20:20:23.621Z,98913.00
2018-11-13T20:22:54.308Z,98923.00
2018-11-13T20:25:25.840Z,98929.00
2018-11-13T20:27:56.075Z,98922.00
2018-11-13T20:30:31.638Z,98929.00
2018-11-13T20:33:01.857Z,98935.00
2018-11-13T20:35:32.164Z,98944.00
2018-11-13T20:38:02.954Z,98941.00
2018-11-13T20:40:34.439Z,98945.00
2018-11-13T20:43:06.305Z,98936.00
2018-11-13T20:45:36.450Z,98935.00
2018-11-13T20:48:07.166Z,98950.00
2018-11-13T20:50:37.327Z,98951.00
2018-11-13T20:53:07.578Z,98955.00
2018-11-13T20:55:37.870Z,98940.00
2018-11-13T20:58:09.106Z,98943.00
2018-11-13T21:00:39.244Z,98934.00
2018-11-13T21:03:15.575Z,98936.00
2018-11-13T21:05:45.760Z,98939.00
2018-11-13T21:08:15.929Z,98936.00
2018-11-13T21:10:46.103Z,98944.00
2018-11-13T21:13:16.238Z,98935.00
2018-11-13T21:15:46.465Z,98956.00
2018-11-13T21:18:16.623Z,98941.00
2018-11-13T21:20:46.750Z,98936.00
2018-11-13T21:23:16.876Z,98927.00
2018-11-13T21:25:47.016Z,98938.00
2018-11-13T21:28:17.236Z,98936.00
2018-11-13T21:30:47.359Z,98931.00
2018-11-13T21:33:17.525Z,98954.00
2018-11-13T21:35:47.639Z,98934.00
2018-11-13T21:38:18.704Z,98930.00
2018-11-13T21:40:48.802Z,98933.00
2018-11-13T21:43:19.015Z,98950.00
2018-11-13T21:45:49.169Z,98937.00
2018-11-13T21:48:19.424Z,98956.00
2018-11-13T21:50:49.573Z,98951.00
2018-11-13T21:53:19.720Z,98946.00
2018-11-13T21:55:49.884Z,98939.00
2018-11-13T21:58:20.044Z,98939.00
2018-11-13T22:00:50.411Z,98929.00
2018-11-13T22:03:20.571Z,98943.00
2018-11-13T22:05:50.815Z,98940.00
2018-11-13T22:08:21.040Z,98947.00
2018-11-13T22:10:52.070Z,98950.00
2018-11-13T22:13:22.259Z,98945.00
2018-11-13T22:15:52.398Z,98961.00
2018-11-13T22:18:22.663Z,98964.00
2018-11-13T22:20:52.856Z,98967.00
2018-11-13T22:23:23.457Z,98981.00
2018-11-13T22:25:53.198Z,98961.00
2018-11-13T22:28:23.361Z,98970.00
2018-11-13T22:30:53.413Z,98959.00
2018-11-13T22:33:23.590Z,98961.00
2018-11-13T22:35:53.728Z,98972.00
2018-11-13T22:38:23.921Z,98973.00
2018-11-13T22:40:54.119Z,98968.00
2018-11-13T22:43:24.230Z,98971.00
2018-11-13T22:45:54.362Z,98968.00
2018-11-13T22:48:25.163Z,98951.00
2018-11-13T22:50:55.351Z,98947.00
2018-11-13T22:53:25.436Z,98950.00
2018-11-13T22:55:55.512Z,98947.00
2018-11-13T22:58:25.833Z,98957.00
2018-11-13T23:00:56.062Z,98955.00
2018-11-13T23:03:26.227Z,98950.00
2018-11-13T23:05:56.429Z,98954.00
2018-11-13T23:08:56.750Z,98957.00
2018-11-13T23:11:55.637Z,98950.00
2018-11-13T23:14:25.754Z,98960.00
2018-11-13T23:16:55.877Z,98967.00
2018-11-13T23:19:26.008Z,98956.00
2018-11-13T23:21:56.143Z,98951.00
2018-11-13T23:24:26.261Z,98963.00
2018-11-13T23:26:56.380Z,98962.00
2018-11-13T23:29:26.471Z,98958.00
2018-11-13T23:31:56.664Z,98954.00
2018-11-13T23:34:26.844Z,98956.00
2018-11-13T23:36:57.011Z,98955.00
2018-11-13T23:39:27.074Z,98967.00
2018-11-13T23:41:57.255Z,98960.00
2018-11-13T23:44:27.442Z,98963.00
2018-11-13T23:46:57.556Z,98967.00
2018-11-13T23:49:27.726Z,98977.00
2018-11-13T23:51:57.890Z,98956.00
2018-11-13T23:54:27.989Z,98964.00
2018-11-13T23:56:58.098Z,98953.00
2018-11-13T23:59:28.171Z,98958.00
